Palmer, AK (99645)

8:58 AM AKST on December 10, 2016 (GMT -0900)
Pioneer View | | Change Station

Elev 300 ft 61.59 °N, 149.17 °W | Updated 14 seconds ago

Clear
Clear
21.4 °F
Feels Like 11 °F
N
10.1
Wind Variable Wind from North
Gusts 15.4 mph

Today
High -- | Low -- °F
--% Chance of Precip.
Yesterday
High -- | Low -- °F
Precip. -- in
Pressure 30.19 in
Visibility 10.0 miles
Clouds Clear
Windchill 11 °F
Dew Point -5 °F
Humidity 30%
Rainfall 0.00 in
Snow Depth Not available.
10:04 AM 3:34 PM
Waxing Gibbous, 85% visible
METAR PAAQ 101753Z 00000KT 10SM CLR M14/M16 A3017 RMK AO2 SLP223 I1000 I6000 T11391156 11094 21167 51008
Pressure 30.19 in
Visibility 10.0 miles
Clouds Clear
Windchill 11 °F
Dew Point -5 °F
Humidity 30%
Rainfall 0.00 in
Snow Depth Not available.
10:04 AM 3:34 PM
Waxing Gibbous, 85% visible
METAR PAAQ 101753Z 00000KT 10SM CLR M14/M16 A3017 RMK AO2 SLP223 I1000 I6000 T11391156 11094 21167 51008

10-Day Weather Forecast

Almanac

Astronomy

Dec. 10, 2016 Rise Set
Actual Time
Civil Twilight
Nautical Twilight
Astronomical Twilight
Moon
Length of Visible Light
Length of Day
Tomorrow will be .
, % of the Moon is Illuminated

Today's Extremes

State Highs State Lows

Community

WunderPhotos

Upload Photos

1,956,591 photos uploaded!

WunderBlog® & News

Nearby

Air Quality

  Air Quality AQ Index Pollutant
Not available.

Snow Depth

Station Depth Elevation

Earthquake Activity

City Distance Mag. Time & Date
Minimum magnitude displayed is 2.5.

Coastal Water Temperatures

Place Temperature

Stations

Nearby Weather Stations

Station Location Temp. Windchill Dew Point Humidity Wind Precip. Elev Updated Type
                   

Watches & Warnings

There are currently no watches in effect.